createdAt,value
2018-03-11T00:02:20.382Z,25.30
2018-03-11T00:04:47.307Z,22.40
2018-03-11T00:07:14.191Z,23.40
2018-03-11T00:09:41.116Z,25.00
2018-03-11T00:12:08.038Z,22.87
2018-03-11T00:14:35.039Z,23.87
2018-03-11T00:17:01.972Z,19.53
2018-03-11T00:19:28.834Z,21.30
2018-03-11T00:21:55.703Z,20.47
2018-03-11T00:24:23.367Z,23.37
2018-03-11T00:26:50.235Z,20.83
2018-03-11T00:29:17.175Z,21.37
2018-03-11T00:31:44.164Z,21.33
2018-03-11T00:34:11.035Z,21.13
2018-03-11T00:36:37.980Z,19.83
2018-03-11T00:39:04.993Z,21.67
2018-03-11T00:41:31.937Z,23.03
2018-03-11T00:43:58.803Z,24.03
2018-03-11T00:46:25.731Z,20.90
2018-03-11T00:48:52.603Z,19.57
2018-03-11T00:51:19.551Z,20.27
2018-03-11T00:53:46.411Z,60.73
2018-03-11T00:56:14.009Z,20.40
2018-03-11T00:58:40.948Z,58.40
2018-03-11T01:01:07.818Z,166.87
2018-03-11T01:03:34.744Z,30.13
2018-03-11T01:06:01.618Z,22.57
2018-03-11T01:08:28.565Z,86.57
2018-03-11T01:10:55.443Z,54.03
2018-03-11T01:13:23.120Z,50.93
2018-03-11T01:15:50.114Z,100.17
2018-03-11T01:18:16.972Z,47.53
2018-03-11T01:20:43.912Z,94.77
2018-03-11T01:23:10.779Z,54.67
2018-03-11T01:25:38.403Z,43.70
2018-03-11T01:28:05.432Z,19.67
2018-03-11T01:30:32.295Z,16.23
2018-03-11T01:32:59.157Z,23.07
2018-03-11T01:35:26.081Z,17.37
2018-03-11T01:37:52.940Z,19.70
2018-03-11T01:40:19.847Z,18.73
2018-03-11T01:42:46.707Z,17.27
2018-03-11T01:45:13.658Z,20.00
2018-03-11T01:47:40.515Z,19.93
2018-03-11T01:50:07.372Z,18.90
2018-03-11T01:52:46.218Z,18.43
2018-03-11T01:55:13.840Z,18.60
2018-03-11T01:57:40.782Z,24.97
2018-03-11T02:00:07.657Z,19.70
2018-03-11T02:02:34.554Z,22.13
2018-03-11T02:05:01.477Z,34.37
2018-03-11T02:07:29.075Z,17.70
2018-03-11T02:09:56.004Z,20.37
2018-03-11T02:12:22.865Z,18.53
2018-03-11T02:14:49.859Z,19.83
2018-03-11T02:17:16.715Z,24.27
2018-03-11T02:19:44.443Z,32.23
2018-03-11T02:22:11.315Z,22.10
2018-03-11T02:24:38.243Z,17.30
2018-03-11T02:27:05.171Z,20.00
2018-03-11T02:29:32.062Z,22.10
2018-03-11T02:31:59.803Z,23.50
2018-03-11T02:34:26.664Z,19.37
2018-03-11T02:36:53.585Z,21.00
2018-03-11T02:39:20.443Z,21.67
2018-03-11T02:41:47.364Z,22.80
2018-03-11T02:44:14.229Z,22.40
2018-03-11T02:46:41.162Z,23.27
2018-03-11T02:49:08.040Z,20.07
2018-03-11T02:51:35.705Z,18.60
2018-03-11T02:54:02.657Z,26.10
2018-03-11T02:56:30.308Z,24.40
2018-03-11T02:58:57.263Z,24.27
2018-03-11T03:01:24.854Z,23.57
2018-03-11T03:03:51.726Z,22.80
2018-03-11T03:06:18.667Z,20.87
2018-03-11T03:08:45.536Z,24.93
2018-03-11T03:11:12.387Z,23.40
2018-03-11T03:13:39.311Z,24.30
2018-03-11T03:16:06.236Z,23.43
2018-03-11T03:18:33.164Z,22.87
2018-03-11T03:21:00.021Z,22.73
2018-03-11T03:23:26.944Z,33.27
2018-03-11T03:25:53.896Z,19.07
2018-03-11T03:28:20.760Z,32.87
2018-03-11T03:30:47.708Z,59.53
2018-03-11T03:33:14.671Z,73.33
2018-03-11T03:35:41.615Z,79.63
2018-03-11T03:38:08.563Z,26.57
2018-03-11T03:40:35.500Z,25.10
2018-03-11T03:43:02.416Z,21.47
2018-03-11T03:45:29.344Z,26.00
2018-03-11T03:47:57.002Z,22.03
2018-03-11T03:50:23.864Z,21.17
2018-03-11T03:52:50.795Z,22.03
2018-03-11T03:55:17.640Z,24.80
2018-03-11T03:57:45.231Z,18.90
2018-03-11T04:00:12.215Z,20.57
2018-03-11T04:02:39.083Z,19.77
2018-03-11T04:05:06.025Z,20.07
2018-03-11T04:07:32.897Z,24.33
2018-03-11T04:09:59.875Z,20.97
2018-03-11T04:12:26.730Z,22.43
2018-03-11T04:14:53.666Z,24.10
2018-03-11T04:17:20.582Z,24.23
2018-03-11T04:19:47.532Z,22.60
2018-03-11T04:22:14.431Z,21.43
2018-03-11T04:24:41.291Z,23.17
2018-03-11T04:27:08.235Z,24.67
2018-03-11T04:29:35.093Z,28.13
2018-03-11T04:32:02.767Z,25.60
2018-03-11T04:34:29.692Z,24.43
2018-03-11T04:36:56.635Z,27.37
2018-03-11T04:39:23.492Z,27.20
2018-03-11T04:41:50.419Z,26.40
2018-03-11T04:44:17.273Z,26.20
2018-03-11T04:46:44.933Z,24.50
2018-03-11T04:49:12.550Z,24.73
2018-03-11T04:51:39.474Z,25.63
2018-03-11T04:54:06.334Z,25.87
2018-03-11T04:56:33.263Z,23.03
2018-03-11T04:59:00.128Z,24.60
2018-03-11T05:01:27.040Z,26.90
2018-03-11T05:03:53.973Z,22.90
2018-03-11T05:06:21.583Z,23.60
2018-03-11T05:08:48.427Z,25.53
2018-03-11T05:11:15.356Z,28.80
2018-03-11T05:13:42.292Z,27.37
2018-03-11T05:16:09.220Z,29.03
2018-03-11T05:18:36.812Z,23.90
2018-03-11T05:21:03.741Z,24.47
2018-03-11T05:23:30.606Z,24.77
2018-03-11T05:25:58.502Z,22.47
2018-03-11T05:28:25.517Z,22.33
2018-03-11T05:30:52.375Z,26.20
2018-03-11T05:33:19.240Z,28.63
2018-03-11T05:35:46.152Z,26.00
2018-03-11T05:38:13.001Z,23.40
2018-03-11T05:40:39.919Z,25.93
2018-03-11T05:43:06.852Z,26.60
2018-03-11T05:45:33.716Z,24.47
2018-03-11T05:49:38.670Z,25.92
2018-03-11T05:52:05.623Z,24.73
2018-03-11T05:54:32.543Z,24.40
2018-03-11T05:57:00.150Z,22.57
2018-03-11T05:59:27.079Z,22.73
2018-03-11T06:01:53.936Z,23.57
2018-03-11T06:04:20.859Z,22.27
2018-03-11T06:06:47.828Z,22.57
2018-03-11T06:09:14.826Z,23.50
2018-03-11T06:11:41.749Z,23.97
2018-03-11T06:14:08.620Z,22.80
2018-03-11T06:16:36.373Z,21.83
2018-03-11T06:19:03.245Z,20.63
2018-03-11T06:21:30.204Z,25.47
2018-03-11T06:23:57.076Z,22.53
2018-03-11T06:26:23.963Z,21.10
2018-03-11T06:28:51.654Z,22.20
2018-03-11T06:31:18.522Z,21.93
2018-03-11T06:33:45.399Z,22.13
2018-03-11T06:36:12.381Z,21.43
2018-03-11T06:38:39.995Z,21.50
2018-03-11T06:41:06.968Z,20.93
2018-03-11T06:43:34.588Z,19.87
2018-03-11T06:46:01.510Z,22.60
2018-03-11T06:48:28.398Z,20.53
2018-03-11T06:50:55.339Z,19.30
2018-03-11T06:53:22.210Z,19.30
2018-03-11T06:55:49.156Z,16.97
2018-03-11T06:58:16.763Z,20.90
2018-03-11T07:00:44.439Z,17.40
2018-03-11T07:03:11.297Z,18.27
2018-03-11T07:05:38.251Z,17.80
2018-03-11T07:08:05.128Z,16.80
2018-03-11T07:10:32.736Z,17.83
2018-03-11T07:12:59.669Z,17.73
2018-03-11T07:15:26.594Z,17.80
2018-03-11T07:17:54.262Z,17.03
2018-03-11T07:20:21.856Z,15.93
2018-03-11T07:22:48.803Z,15.30
2018-03-11T07:25:15.679Z,15.00
2018-03-11T07:27:42.595Z,13.20
2018-03-11T07:30:09.443Z,12.77
2018-03-11T07:32:36.380Z,13.37
2018-03-11T07:35:03.231Z,12.07
2018-03-11T07:37:30.155Z,13.97
2018-03-11T07:39:57.111Z,10.93
2018-03-11T07:42:23.982Z,11.60
2018-03-11T07:44:50.907Z,11.83
2018-03-11T07:47:17.766Z,14.40
2018-03-11T07:49:44.662Z,13.30
2018-03-11T07:52:12.340Z,13.63
2018-03-11T07:54:39.278Z,13.43
2018-03-11T07:57:06.147Z,12.87
2018-03-11T07:59:33.118Z,12.63
2018-03-11T08:01:59.991Z,12.70
2018-03-11T08:04:27.671Z,13.03
2018-03-11T08:06:54.530Z,13.00
2018-03-11T08:09:21.457Z,11.40
2018-03-11T08:11:49.097Z,9.97
2018-03-11T08:14:16.028Z,10.70
2018-03-11T08:16:42.903Z,10.00
2018-03-11T08:19:09.899Z,8.97
2018-03-11T08:21:36.840Z,9.07
2018-03-11T08:24:03.791Z,8.63
2018-03-11T08:26:30.669Z,8.47
2018-03-11T08:28:57.599Z,8.70
2018-03-11T08:31:24.526Z,7.77
2018-03-11T08:33:51.804Z,7.57
2018-03-11T08:36:18.909Z,7.33
2018-03-11T08:38:45.845Z,7.77
2018-03-11T08:41:12.768Z,6.83
2018-03-11T08:43:40.382Z,6.90
2018-03-11T08:46:07.322Z,7.17
2018-03-11T08:48:34.248Z,6.67
2018-03-11T08:51:01.127Z,5.83
2018-03-11T08:53:28.087Z,6.70
2018-03-11T08:55:55.559Z,7.63
2018-03-11T08:58:22.632Z,5.40
2018-03-11T09:00:50.237Z,7.50
2018-03-11T09:03:19.279Z,6.77
2018-03-11T09:05:46.208Z,6.60
2018-03-11T09:08:13.132Z,6.03
2018-03-11T09:10:40.158Z,5.90
2018-03-11T09:13:07.035Z,6.30
2018-03-11T09:15:33.959Z,5.80
2018-03-11T09:18:00.915Z,6.10
2018-03-11T09:20:27.846Z,4.87
2018-03-11T09:22:54.752Z,4.77
2018-03-11T09:25:22.499Z,4.63
2018-03-11T09:27:49.380Z,6.27
2018-03-11T09:30:16.320Z,5.53
2018-03-11T09:32:43.940Z,5.83
2018-03-11T09:35:10.906Z,6.20
2018-03-11T09:37:38.043Z,8.03
2018-03-11T09:40:05.056Z,7.33
2018-03-11T09:42:32.443Z,8.83
2018-03-11T09:44:59.304Z,9.37
2018-03-11T09:47:27.389Z,10.20
2018-03-11T09:49:55.576Z,9.67
2018-03-11T09:52:23.066Z,12.30
2018-03-11T09:54:49.991Z,12.93
2018-03-11T09:57:16.872Z,11.67
2018-03-11T09:59:45.218Z,13.33
2018-03-11T10:02:12.083Z,13.57
2018-03-11T10:04:39.007Z,12.07
2018-03-11T10:07:07.356Z,11.57
2018-03-11T10:09:35.972Z,11.10
2018-03-11T10:12:04.254Z,10.50
2018-03-11T10:14:32.116Z,9.67
2018-03-11T10:16:59.388Z,11.90
2018-03-11T10:19:26.395Z,11.77
2018-03-11T10:21:54.217Z,11.53
2018-03-11T10:24:22.691Z,10.80
2018-03-11T10:26:51.287Z,10.77
2018-03-11T10:29:19.602Z,11.70
2018-03-11T10:31:46.880Z,10.83
2018-03-11T10:34:14.151Z,10.33
2018-03-11T10:36:41.236Z,10.80
2018-03-11T10:39:09.824Z,10.63
2018-03-11T10:41:38.271Z,11.67
2018-03-11T10:44:06.604Z,11.57
2018-03-11T10:46:33.473Z,9.50
2018-03-11T10:49:00.842Z,9.50
2018-03-11T10:51:28.283Z,9.73
2018-03-11T10:53:56.752Z,8.93
2018-03-11T10:56:25.915Z,8.57
2018-03-11T10:58:54.377Z,9.10
2018-03-11T11:01:22.816Z,9.47
2018-03-11T11:03:52.255Z,9.70
2018-03-11T11:06:20.794Z,9.57
2018-03-11T11:08:48.902Z,7.90
2018-03-11T11:11:15.888Z,7.67
2018-03-11T11:13:42.770Z,7.27
2018-03-11T11:16:10.865Z,7.37
2018-03-11T11:18:39.418Z,7.57
2018-03-11T11:21:08.490Z,7.60
2018-03-11T11:23:37.015Z,7.93
2018-03-11T11:26:05.403Z,8.40
2018-03-11T11:28:34.557Z,8.63
2018-03-11T11:31:02.839Z,7.77
2018-03-11T11:33:30.364Z,9.63
2018-03-11T11:35:58.843Z,9.97
2018-03-11T11:38:27.387Z,9.83
2018-03-11T11:40:56.721Z,9.70
2018-03-11T11:43:24.362Z,10.70
2018-03-11T11:45:51.671Z,10.03
2018-03-11T11:48:20.038Z,11.13
2018-03-11T11:50:47.364Z,11.23
2018-03-11T11:53:15.755Z,12.30
2018-03-11T11:55:42.696Z,11.03
2018-03-11T11:58:10.120Z,9.97
2018-03-11T12:00:49.268Z,8.90
2018-03-11T12:03:17.245Z,9.63
2018-03-11T12:05:53.100Z,9.97
2018-03-11T12:08:25.468Z,10.63
2018-03-11T12:10:54.719Z,10.03
2018-03-11T12:13:39.580Z,9.30
2018-03-11T12:16:24.069Z,9.40
2018-03-11T12:18:52.037Z,10.50
2018-03-11T12:21:19.011Z,13.10
2018-03-11T12:23:45.955Z,10.27
2018-03-11T12:26:12.896Z,8.37
2018-03-11T12:28:39.860Z,7.07
2018-03-11T12:31:06.757Z,7.50
2018-03-11T12:33:33.626Z,7.90
2018-03-11T12:36:01.312Z,8.47
2018-03-11T12:38:28.175Z,7.97
2018-03-11T12:40:55.110Z,7.17
2018-03-11T12:43:22.055Z,7.83
2018-03-11T12:45:49.021Z,6.73
2018-03-11T12:48:18.121Z,5.97
2018-03-11T12:50:45.951Z,5.77
2018-03-11T12:53:12.825Z,5.93
2018-03-11T12:55:39.771Z,6.27
2018-03-11T12:58:06.723Z,5.00
2018-03-11T13:00:33.598Z,4.50
2018-03-11T13:03:00.540Z,5.97
2018-03-11T13:05:27.475Z,6.00
2018-03-11T13:07:54.362Z,5.13
2018-03-11T13:10:22.068Z,5.20
2018-03-11T13:12:48.969Z,5.23
2018-03-11T13:15:16.604Z,5.83
2018-03-11T13:17:43.538Z,4.60
2018-03-11T13:20:22.626Z,4.10
2018-03-11T13:22:49.556Z,4.10
2018-03-11T13:25:17.290Z,5.27
2018-03-11T13:27:56.419Z,6.60
2018-03-11T13:30:23.408Z,3.73
2018-03-11T13:33:11.043Z,3.70
2018-03-11T13:35:38.043Z,4.67
2018-03-11T13:38:17.695Z,5.73
2018-03-11T13:40:45.496Z,4.10
2018-03-11T13:43:12.443Z,4.40
2018-03-11T13:45:51.336Z,3.20
2018-03-11T13:48:18.341Z,3.70
2018-03-11T13:50:45.212Z,3.80
2018-03-11T13:53:24.108Z,1.90
2018-03-11T13:55:50.992Z,4.60
2018-03-11T13:58:29.919Z,3.07
2018-03-11T14:00:56.789Z,2.00
2018-03-11T14:03:24.451Z,1.70
2018-03-11T14:05:52.055Z,1.60
2018-03-11T14:08:18.972Z,2.27
2018-03-11T14:10:45.853Z,2.50
2018-03-11T14:13:12.786Z,2.97
2018-03-11T14:15:39.664Z,2.80
2018-03-11T14:18:06.596Z,2.23
2018-03-11T14:20:33.527Z,2.50
2018-03-11T14:23:00.453Z,3.70
2018-03-11T14:25:27.399Z,5.33
2018-03-11T14:27:54.263Z,6.23
2018-03-11T14:30:21.240Z,6.40
2018-03-11T14:32:48.115Z,6.67
2018-03-11T14:35:15.790Z,5.70
2018-03-11T14:37:42.762Z,6.47
2018-03-11T14:40:09.639Z,5.80
2018-03-11T14:42:36.587Z,4.23
2018-03-11T14:45:03.640Z,3.33
2018-03-11T14:47:31.251Z,3.63
2018-03-11T14:49:58.120Z,4.00
2018-03-11T14:52:25.083Z,5.43
2018-03-11T14:54:52.084Z,4.17
2018-03-11T14:57:19.109Z,5.17
2018-03-11T14:59:46.007Z,4.60
2018-03-11T15:02:12.941Z,6.20
2018-03-11T15:04:39.810Z,4.23
2018-03-11T15:07:06.700Z,3.90
2018-03-11T15:09:34.416Z,3.70
2018-03-11T15:12:01.272Z,3.60
2018-03-11T15:14:28.230Z,3.17
2018-03-11T15:16:55.127Z,3.80
2018-03-11T15:19:22.099Z,4.70
2018-03-11T15:21:49.099Z,6.30
2018-03-11T15:24:16.790Z,4.50
2018-03-11T15:26:43.719Z,4.17
2018-03-11T15:29:10.592Z,5.50
2018-03-11T15:31:37.546Z,5.80
2018-03-11T15:34:04.495Z,5.80
2018-03-11T15:36:31.370Z,7.60
2018-03-11T15:38:58.298Z,6.30
2018-03-11T15:41:25.167Z,5.33
2018-03-11T15:43:52.848Z,5.87
2018-03-11T15:46:20.472Z,4.73
2018-03-11T15:48:47.392Z,4.77
2018-03-11T15:51:14.363Z,4.80
2018-03-11T15:53:55.353Z,4.03
2018-03-11T15:56:23.330Z,5.77
2018-03-11T15:58:50.266Z,7.37
2018-03-11T16:01:17.228Z,5.90
2018-03-11T16:03:44.858Z,7.67
2018-03-11T16:06:11.806Z,4.90
2018-03-11T16:08:40.831Z,6.00
2018-03-11T16:11:08.547Z,6.60
2018-03-11T16:13:35.428Z,6.33
2018-03-11T16:16:05.741Z,3.73
2018-03-11T16:18:33.704Z,3.00
2018-03-11T16:21:02.002Z,3.27
2018-03-11T16:23:29.183Z,3.20
2018-03-11T16:25:57.180Z,2.97
2018-03-11T16:28:24.129Z,3.00
2018-03-11T16:30:51.086Z,4.30
2018-03-11T16:33:25.094Z,5.10
2018-03-11T16:35:57.318Z,4.60
2018-03-11T16:38:25.614Z,5.70
2018-03-11T16:40:52.892Z,7.70
2018-03-11T16:43:22.247Z,6.83
2018-03-11T16:45:51.036Z,5.23
2018-03-11T16:48:23.525Z,6.60
2018-03-11T16:50:53.020Z,3.70
2018-03-11T16:53:22.141Z,5.83
2018-03-11T16:55:52.724Z,5.53
2018-03-11T16:58:27.385Z,9.30
2018-03-11T17:01:00.224Z,8.50
2018-03-11T17:03:28.089Z,10.87
2018-03-11T17:05:56.519Z,13.13
2018-03-11T17:08:23.466Z,8.37
2018-03-11T17:10:53.530Z,5.70
2018-03-11T17:13:25.318Z,5.20
2018-03-11T17:15:56.982Z,4.43
2018-03-11T17:18:27.177Z,4.30
2018-03-11T17:20:54.511Z,4.27
2018-03-11T17:23:25.885Z,3.87
2018-03-11T17:26:02.681Z,4.10
2018-03-11T17:28:36.608Z,4.40
2018-03-11T17:33:57.722Z,5.20
2018-03-11T17:36:27.430Z,3.67
2018-03-11T17:38:57.786Z,3.63
2018-03-11T17:41:28.522Z,3.20
2018-03-11T17:44:00.650Z,3.40
2018-03-11T17:46:40.842Z,4.27
2018-03-11T17:49:15.621Z,3.97
2018-03-11T17:51:55.504Z,4.20
2018-03-11T17:54:33.866Z,4.60
2018-03-11T17:57:07.980Z,4.37
2018-03-11T17:59:37.352Z,4.67
2018-03-11T18:02:07.134Z,4.40
2018-03-11T18:04:34.327Z,4.83
2018-03-11T18:07:01.230Z,3.80
2018-03-11T18:09:28.855Z,4.60
2018-03-11T18:11:56.736Z,4.40
2018-03-11T18:14:23.733Z,5.20
2018-03-11T18:16:51.251Z,8.80
2018-03-11T18:19:18.147Z,4.60
2018-03-11T18:21:45.156Z,4.83
2018-03-11T18:24:13.595Z,4.90
2018-03-11T18:26:40.548Z,4.30
2018-03-11T18:29:07.443Z,4.87
2018-03-11T18:31:34.384Z,5.67
2018-03-11T18:34:01.330Z,4.73
2018-03-11T18:36:30.451Z,4.83
2018-03-11T18:38:57.403Z,4.70
2018-03-11T18:41:24.418Z,3.93
2018-03-11T18:43:51.298Z,3.90
2018-03-11T18:46:18.243Z,3.67
2018-03-11T18:48:45.125Z,3.63
2018-03-11T18:51:12.059Z,5.67
2018-03-11T18:53:39.003Z,4.47
2018-03-11T18:56:05.912Z,4.50
2018-03-11T18:58:32.849Z,5.77
2018-03-11T19:01:00.856Z,5.40
2018-03-11T19:03:27.747Z,4.10
2018-03-11T19:05:54.959Z,4.10
2018-03-11T19:08:21.880Z,4.73
2018-03-11T19:10:49.574Z,3.60
2018-03-11T19:13:16.548Z,3.63
2018-03-11T19:15:43.521Z,4.00
2018-03-11T19:18:10.405Z,4.23
2018-03-11T19:20:37.323Z,3.80
2018-03-11T19:23:05.077Z,4.57
2018-03-11T19:25:32.012Z,3.80
2018-03-11T19:27:58.877Z,4.10
2018-03-11T19:30:26.604Z,4.57
2018-03-11T19:32:53.952Z,4.27
2018-03-11T19:35:21.832Z,3.77
2018-03-11T19:37:49.618Z,6.13
2018-03-11T19:40:17.348Z,4.50
2018-03-11T19:42:45.232Z,4.80
2018-03-11T19:45:12.188Z,5.10
2018-03-11T19:47:39.474Z,4.10
2018-03-11T19:50:06.642Z,5.53
2018-03-11T19:52:33.847Z,4.70
2018-03-11T19:55:01.532Z,4.20
2018-03-11T19:57:28.547Z,4.67
2018-03-11T19:59:56.751Z,5.00
2018-03-11T20:02:26.417Z,7.50
2018-03-11T20:04:54.409Z,6.23
2018-03-11T20:07:21.631Z,6.10
2018-03-11T20:09:48.734Z,6.37
2018-03-11T20:12:16.446Z,6.30
2018-03-11T20:14:44.435Z,6.10
2018-03-11T20:17:11.707Z,5.73
2018-03-11T20:19:38.581Z,6.10
2018-03-11T20:22:06.916Z,6.67
2018-03-11T20:24:35.049Z,5.87
2018-03-11T20:27:02.012Z,5.50
2018-03-11T20:29:28.945Z,6.17
2018-03-11T20:31:55.818Z,6.80
2018-03-11T20:34:22.764Z,7.63
2018-03-11T20:36:51.721Z,6.60
2018-03-11T20:39:20.303Z,7.67
2018-03-11T20:41:59.607Z,7.33
2018-03-11T20:44:40.979Z,7.60
2018-03-11T20:47:24.143Z,6.57
2018-03-11T20:50:07.299Z,6.43
2018-03-11T20:52:49.737Z,6.60
2018-03-11T20:55:31.561Z,6.20
2018-03-11T20:58:01.187Z,7.37
2018-03-11T21:00:42.551Z,7.90
2018-03-11T21:03:24.060Z,7.90
2018-03-11T21:05:56.754Z,8.17
2018-03-11T21:08:36.837Z,7.67
2018-03-11T21:11:16.378Z,8.83
2018-03-11T21:13:55.981Z,8.70
2018-03-11T21:16:37.734Z,8.80
2018-03-11T21:19:18.219Z,8.40
2018-03-11T21:21:46.114Z,8.83
2018-03-11T21:24:13.147Z,9.33
2018-03-11T21:26:44.102Z,9.43
2018-03-11T21:29:22.407Z,8.67
2018-03-11T21:31:58.321Z,11.20
2018-03-11T21:34:26.213Z,9.10
2018-03-11T21:36:54.542Z,9.53
2018-03-11T21:39:28.259Z,9.10
2018-03-11T21:41:57.181Z,9.53
2018-03-11T21:44:24.168Z,8.60
2018-03-11T21:46:51.072Z,8.80
2018-03-11T21:49:18.000Z,9.00
2018-03-11T21:51:58.128Z,8.77
2018-03-11T21:54:39.929Z,8.70
2018-03-11T21:57:20.777Z,8.13
2018-03-11T22:00:02.080Z,8.77
2018-03-11T22:02:43.052Z,8.30
2018-03-11T22:05:19.389Z,8.03
2018-03-11T22:07:46.999Z,6.80
2018-03-11T22:10:13.953Z,8.07
2018-03-11T22:12:40.820Z,9.00
2018-03-11T22:15:08.110Z,8.43
2018-03-11T22:17:34.999Z,11.20
2018-03-11T22:20:01.924Z,8.13
2018-03-11T22:22:28.920Z,8.63
2018-03-11T22:24:55.810Z,9.80
2018-03-11T22:27:22.849Z,10.73
2018-03-11T22:29:49.873Z,10.63
2018-03-11T22:32:16.824Z,10.93
2018-03-11T22:34:43.743Z,11.53
2018-03-11T22:37:10.603Z,14.80
2018-03-11T22:39:38.294Z,10.93
2018-03-11T22:42:05.199Z,10.00
2018-03-11T22:44:32.087Z,9.67
2018-03-11T22:46:59.021Z,11.40
2018-03-11T22:49:25.907Z,9.60
2018-03-11T22:51:52.847Z,10.73
2018-03-11T22:54:19.910Z,9.90
2018-03-11T22:56:46.860Z,10.27
2018-03-11T22:59:13.739Z,9.87
2018-03-11T23:01:40.606Z,12.60
2018-03-11T23:04:07.540Z,13.37
2018-03-11T23:06:34.484Z,11.20
2018-03-11T23:09:01.363Z,11.27
2018-03-11T23:11:28.291Z,10.97
2018-03-11T23:13:55.234Z,8.63
2018-03-11T23:16:22.119Z,10.90
2018-03-11T23:19:01.011Z,8.93
2018-03-11T23:21:27.887Z,9.20
2018-03-11T23:23:54.754Z,9.30
2018-03-11T23:26:21.760Z,9.60
2018-03-11T23:28:48.633Z,10.60
2018-03-11T23:31:15.648Z,9.77
2018-03-11T23:33:42.628Z,9.90
2018-03-11T23:36:09.496Z,10.10
2018-03-11T23:38:37.180Z,11.10
2018-03-11T23:41:04.163Z,10.90
2018-03-11T23:43:31.103Z,10.97
2018-03-11T23:45:57.962Z,11.43
2018-03-11T23:48:24.827Z,12.67
2018-03-11T23:50:51.751Z,12.77
2018-03-11T23:53:18.599Z,13.23
2018-03-11T23:55:45.544Z,12.10
2018-03-11T23:58:12.428Z,11.60
